| time (UTC) | temp C | wind direction | speed KPH | gust KPH | rain 1hr cm | rain 24hr cm | rain mn cm | humidity % | barometer mb |
| 20260507175003 | 21 | 155 | 8.0 | 12.9 | 0.03 | 3.99 | 3.99 | 95 | 1014.0 |
| 20260507174516 | 21 | 184 | 3.2 | 6.4 | 0.05 | 3.99 | 3.99 | 96 | 1014.4 |
| 20260507174006 | 21 | 173 | 3.2 | 11.3 | 0.10 | 3.99 | 3.99 | 95 | 1014.4 |
| 20260507173513 | 21 | 198 | 3.2 | 11.3 | 0.18 | 3.99 | 3.99 | 96 | 1014.4 |
| 20260507173017 | 21 | 169 | 3.2 | 11.3 | 0.20 | 3.99 | 3.99 | 96 | 1014.5 |
| 20260507172507 | 21 | 231 | 3.2 | 8.0 | 0.20 | 3.99 | 3.99 | 96 | 1014.6 |
| 20260507172007 | 21 | 201 | 4.8 | 8.0 | 0.25 | 3.99 | 3.99 | 95 | 1014.3 |
| 20260507171525 | 21 | 202 | 3.2 | 8.0 | 0.61 | 3.99 | 3.99 | 97 | 1014.7 |
| 20260507171008 | 21 | 199 | 1.6 | 6.4 | 0.91 | 3.99 | 3.99 | 97 | 1014.6 |
| 20260507170502 | 20 | 198 | 1.6 | 12.9 | 1.22 | 3.99 | 3.99 | 96 | 1014.7 |
| 20260507170010 | 20 | 230 | 6.4 | 11.3 | 1.32 | 3.99 | 3.99 | 95 | 1014.7 |
| 20260507165502 | 20 | 197 | 1.6 | 4.8 | 1.37 | 3.99 | 3.99 | 95 | 1014.5 |
| 20260507165003 | 20 | 219 | 1.6 | 9.7 | 1.37 | 3.96 | 3.96 | 95 | 1014.2 |
| 20260507164514 | 20 | 245 | 0.0 | 14.5 | 2.57 | 3.94 | 3.94 | 95 | 1014.6 |
| 20260507164003 | 20 | 301 | 6.4 | 14.5 | 3.89 | 3.89 | 3.89 | 94 | 1014.7 |
| 20260507163502 | 20 | 96 | 0.0 | 11.3 | 3.81 | 3.81 | 3.81 | 94 | 1015.5 |
| 20260507163018 | 20 | 213 | 1.6 | 27.4 | 3.78 | 3.78 | 3.78 | 94 | 1015.7 |
| 20260507162507 | 20 | 227 | 9.7 | 35.4 | 3.78 | 3.78 | 3.78 | 93 | 1015.4 |
| 20260507162007 | 21 | 194 | 20.9 | 35.4 | 3.73 | 3.73 | 3.73 | 94 | 1015.0 |
| 20260507161538 | 21 | 219 | 3.2 | 12.9 | 3.38 | 3.38 | 3.38 | 94 | 1015.5 |
| 20260507161008 | 21 | 182 | 3.2 | 12.9 | 3.07 | 3.07 | 3.07 | 94 | 1015.8 |
| 20260507160510 | 21 | 180 | 0.0 | 9.7 | 2.77 | 2.77 | 2.77 | 94 | 1015.4 |
| 20260507160034 | 21 | 210 | 0.0 | 19.3 | 2.64 | 2.64 | 2.64 | 93 | 1014.9 |
| 20260507155503 | 21 | 217 | 4.8 | 30.6 | 2.62 | 2.62 | 2.62 | 93 | 1014.9 |
| 20260507155007 | 22 | 162 | 12.9 | 37.0 | 2.59 | 2.59 | 2.59 | 92 | 1014.6 |
| 20260507154004 | 23 | 302 | 6.4 | 11.3 | 0.00 | 0.00 | 0.00 | 91 | 1016.0 |
| 20260507153504 | 23 | 5 | 1.6 | 4.8 | 0.00 | 0.00 | 0.00 | 90 | 1014.9 |
| 20260507153015 | 23 | 40 | 3.2 | 6.4 | 0.00 | 0.00 | 0.00 | 90 | 1014.4 |
| 20260507152507 | 23 | 85 | 3.2 | 6.4 | 0.00 | 0.00 | 0.00 | 90 | 1014.1 |
| 20260507152008 | 23 | 94 | 1.6 | 4.8 | 0.00 | 0.00 | 0.00 | 89 | 1014.1 |
| 20260507151534 | 23 | 165 | 0.0 | 6.4 | 0.00 | 0.00 | 0.00 | 89 | 1014.4 |
| 20260507151006 | 23 | 80 | 3.2 | 6.4 | 0.00 | 0.00 | 0.00 | 88 | 1014.1 |
| 20260507150507 | 23 | 88 | 3.2 | 6.4 | 0.00 | 0.00 | 0.00 | 88 | 1013.9 |
| 20260507150024 | 23 | 41 | 3.2 | 8.0 | 0.00 | 0.00 | 0.00 | 87 | 1014.2 |
| 20260507145507 | 23 | 38 | 3.2 | 16.1 | 0.00 | 0.00 | 0.00 | 86 | 1014.4 |
| 20260507145010 | 23 | 69 | 4.8 | 16.1 | 0.00 | 0.00 | 0.00 | 84 | 1014.5 |
| 20260507144510 | 24 | 310 | 8.0 | 16.1 | 0.00 | 0.00 | 0.00 | 86 | 1014.6 |
| 20260507144008 | 24 | 317 | 4.8 | 11.3 | 0.00 | 0.00 | 0.00 | 88 | 1014.6 |
| 20260507143505 | 24 | 72 | 3.2 | 9.7 | 0.00 | 0.00 | 0.00 | 88 | 1014.5 |
| 20260507143015 | 24 | 222 | 1.6 | 8.0 | 0.00 | 0.00 | 0.00 | 88 | 1014.3 |
| 20260507142504 | 25 | 138 | 1.6 | 6.4 | 0.00 | 0.00 | 0.00 | 88 | 1014.2 |
| 20260507142008 | 25 | 252 | 1.6 | 6.4 | 0.00 | 0.00 | 0.00 | 88 | 1014.2 |
| 20260507141521 | 25 | 184 | 0.0 | 8.0 | 0.00 | 0.00 | 0.00 | 88 | 1014.3 |
| 20260507141012 | 25 | 104 | 1.6 | 9.7 | 0.00 | 0.00 | 0.00 | 88 | 1014.1 |
| 20260507140509 | 25 | 179 | 4.8 | 9.7 | 0.00 | 0.00 | 0.00 | 88 | 1013.9 |
| 20260507140026 | 25 | 188 | 4.8 | 11.3 | 0.00 | 0.00 | 0.00 | 88 | 1014.0 |
| 20260507135508 | 25 | 159 | 1.6 | 11.3 | 0.00 | 0.00 | 0.00 | 88 | 1014.2 |
| 20260507135009 | 25 | 196 | 1.6 | 8.0 | 0.00 | 0.00 | 0.00 | 88 | 1014.4 |
| 20260507134536 | 25 | 30 | 1.6 | 8.0 | 0.00 | 0.00 | 0.00 | 88 | 1014.5 |
| 20260507134003 | 25 | 234 | 3.2 | 6.4 | 0.00 | 0.00 | 0.00 | 88 | 1014.4 |
| 20260507133505 | 25 | 234 | 1.6 | 6.4 | 0.00 | 0.00 | 0.00 | 89 | 1014.2 |
| 20260507133014 | 24 | 212 | 3.2 | 11.3 | 0.00 | 0.00 | 0.00 | 89 | 1014.4 |
| 20260507132507 | 24 | 240 | 3.2 | 11.3 | 0.00 | 0.00 | 0.00 | 89 | 1014.3 |
| 20260507132010 | 24 | 289 | 1.6 | 4.8 | 0.00 | 0.00 | 0.00 | 90 | 1014.1 |
| 20260507131525 | 24 | 336 | 0.0 | 9.7 | 0.00 | 0.00 | 0.00 | 90 | 1014.3 |
| 20260507131005 | 24 | 227 | 1.6 | 9.7 | 0.00 | 0.00 | 0.00 | 90 | 1014.3 |
| 20260507130508 | 24 | 263 | 1.6 | 11.3 | 0.00 | 0.00 | 0.00 | 90 | 1014.4 |
| 20260507130029 | 23 | 215 | 4.8 | 16.1 | 0.00 | 0.00 | 0.00 | 90 | 1014.2 |
| 20260507125509 | 23 | 185 | 3.2 | 16.1 | 0.00 | 0.00 | 0.00 | 90 | 1014.2 |
| 20260507125007 | 23 | 180 | 6.4 | 16.1 | 0.00 | 0.00 | 0.00 | 90 | 1014.1 |
| 20260507124525 | 23 | 188 | 4.8 | 12.9 | 0.00 | 0.00 | 0.00 | 90 | 1014.1 |
| 20260507124010 | 23 | 265 | 4.8 | 12.9 | 0.00 | 0.00 | 0.00 | 90 | 1014.2 |
| 20260507123510 | 23 | 174 | 4.8 | 11.3 | 0.00 | 0.00 | 0.00 | 90 | 1014.0 |
| 20260507123019 | 23 | 162 | 1.6 | 14.5 | 0.00 | 0.00 | 0.00 | 90 | 1014.0 |
| 20260507122504 | 23 | 189 | 3.2 | 14.5 | 0.00 | 0.00 | 0.00 | 90 | 1014.0 |
| 20260507122012 | 23 | 193 | 3.2 | 12.9 | 0.00 | 0.00 | 0.00 | 90 | 1013.8 |
| 20260507121516 | 23 | 178 | 8.0 | 12.9 | 0.00 | 0.00 | 0.00 | 90 | 1013.8 |
| 20260507121004 | 23 | 194 | 3.2 | 14.5 | 0.00 | 0.00 | 0.00 | 90 | 1013.8 |
| 20260507120509 | 23 | 169 | 3.2 | 16.1 | 0.00 | 0.00 | 0.00 | 90 | 1013.9 |
| 20260507120020 | 23 | 177 | 6.4 | 16.1 | 0.00 | 0.00 | 0.00 | 90 | 1013.8 |
| 20260507115505 | 23 | 198 | 6.4 | 11.3 | 0.00 | 0.00 | 0.00 | 90 | 1013.6 |
| 20260507115007 | 23 | 222 | 4.8 | 17.7 | 0.00 | 0.00 | 0.00 | 90 | 1013.7 |
| 20260507114529 | 23 | 203 | 4.8 | 17.7 | 0.00 | 0.00 | 0.00 | 90 | 1013.6 |
| 20260507114007 | 23 | 239 | 3.2 | 14.5 | 0.00 | 0.00 | 0.00 | 90 | 1013.5 |
| 20260507113504 | 23 | 161 | 3.2 | 14.5 | 0.00 | 0.00 | 0.00 | 90 | 1013.3 |
| 20260507113007 | 23 | 173 | 8.0 | 20.9 | 0.00 | 0.00 | 0.00 | 90 | 1012.9 |
| 20260507112504 | 23 | 202 | 4.8 | 20.9 | 0.00 | 0.00 | 0.00 | 90 | 1012.9 |
| 20260507112004 | 23 | 182 | 4.8 | 22.5 | 0.00 | 0.00 | 0.00 | 90 | 1013.0 |
| 20260507111521 | 23 | 194 | 8.0 | 20.9 | 0.00 | 0.00 | 0.00 | 90 | 1012.9 |
| 20260507111003 | 23 | 180 | 9.7 | 19.3 | 0.00 | 0.00 | 0.00 | 90 | 1012.7 |
| 20260507110506 | 23 | 201 | 4.8 | 16.1 | 0.00 | 0.00 | 0.00 | 90 | 1012.4 |
| 20260507110022 | 23 | 178 | 6.4 | 20.9 | 0.00 | 0.00 | 0.00 | 90 | 1012.4 |
| 20260507105508 | 23 | 222 | 8.0 | 20.9 | 0.00 | 0.00 | 0.00 | 90 | 1012.3 |
| 20260507105005 | 23 | 223 | 6.4 | 19.3 | 0.00 | 0.00 | 0.00 | 90 | 1012.4 |
| 20260507104526 | 23 | 181 | 9.7 | 19.3 | 0.00 | 0.00 | 0.00 | 90 | 1012.3 |
| 20260507104004 | 23 | 197 | 6.4 | 17.7 | 0.00 | 0.00 | 0.00 | 90 | 1012.2 |
| 20260507103504 | 23 | 187 | 8.0 | 17.7 | 0.00 | 0.00 | 0.00 | 90 | 1012.5 |
| 20260507103009 | 23 | 169 | 4.8 | 16.1 | 0.00 | 0.00 | 0.00 | 90 | 1012.4 |
| 20260507102504 | 23 | 188 | 3.2 | 16.1 | 0.00 | 0.00 | 0.00 | 90 | 1012.5 |
| 20260507102004 | 23 | 197 | 1.6 | 16.1 | 0.00 | 0.00 | 0.00 | 90 | 1012.3 |
| 20260507101520 | 23 | 163 | 3.2 | 11.3 | 0.00 | 0.00 | 0.00 | 90 | 1012.3 |
| 20260507101004 | 23 | 208 | 1.6 | 11.3 | 0.00 | 0.00 | 0.00 | 90 | 1012.4 |
| 20260507100504 | 23 | 188 | 3.2 | 11.3 | 0.00 | 0.00 | 0.00 | 90 | 1012.4 |
| 20260507100021 | 23 | 246 | 4.8 | 16.1 | 0.00 | 0.00 | 0.00 | 90 | 1012.4 |
| 20260507095507 | 23 | 184 | 4.8 | 16.1 | 0.00 | 0.00 | 0.00 | 90 | 1012.3 |
| 20260507095007 | 23 | 184 | 1.6 | 8.0 | 0.00 | 0.00 | 0.00 | 90 | 1012.0 |
| 20260507094525 | 23 | 220 | 4.8 | 12.9 | 0.00 | 0.00 | 0.00 | 90 | 1011.9 |
| 20260507094006 | 23 | 197 | 3.2 | 12.9 | 0.00 | 0.00 | 0.00 | 90 | 1011.8 |
| 20260507093508 | 23 | 180 | 3.2 | 16.1 | 0.00 | 0.00 | 0.00 | 90 | 1011.8 |
| 20260507093008 | 23 | 187 | 3.2 | 16.1 | 0.00 | 0.00 | 0.00 | 90 | 1011.7 |
| 20260507092503 | 23 | 223 | 4.8 | 11.3 | 0.00 | 0.00 | 0.00 | 90 | 1011.8 |
| 20260507092003 | 23 | 199 | 3.2 | 9.7 | 0.00 | 0.00 | 0.00 | 90 | 1011.9 |
| 20260507091514 | 23 | 211 | 3.2 | 9.7 | 0.00 | 0.00 | 0.00 | 90 | 1011.9 |
| 20260507091003 | 23 | 246 | 3.2 | 11.3 | 0.00 | 0.00 | 0.00 | 90 | 1011.9 |
| 20260507090504 | 23 | 204 | 4.8 | 12.9 | 0.00 | 0.00 | 0.00 | 90 | 1012.0 |
| 20260507090020 | 23 | 217 | 1.6 | 12.9 | 0.00 | 0.00 | 0.00 | 90 | 1012.1 |
| 20260507085506 | 23 | 247 | 1.6 | 8.0 | 0.00 | 0.00 | 0.00 | 90 | 1012.3 |
| 20260507085007 | 23 | 192 | 3.2 | 11.3 | 0.00 | 0.00 | 0.00 | 90 | 1012.3 |
| 20260507084532 | 23 | 237 | 0.0 | 11.3 | 0.00 | 0.00 | 0.00 | 90 | 1012.3 |
| 20260507084009 | 23 | 233 | 3.2 | 9.7 | 0.00 | 0.00 | 0.00 | 91 | 1012.3 |
| 20260507083508 | 23 | 284 | 1.6 | 17.7 | 0.00 | 0.00 | 0.00 | 91 | 1012.3 |
| 20260507083031 | 23 | 254 | 3.2 | 19.3 | 0.00 | 0.00 | 0.00 | 91 | 1012.3 |
| 20260507082507 | 23 | 165 | 3.2 | 19.3 | 0.00 | 0.00 | 0.00 | 91 | 1012.2 |
| 20260507082004 | 23 | 231 | 4.8 | 12.9 | 0.00 | 0.00 | 0.00 | 91 | 1012.3 |
| 20260507081515 | 23 | 257 | 3.2 | 12.9 | 0.00 | 0.00 | 0.00 | 91 | 1012.4 |
| 20260507081004 | 23 | 217 | 3.2 | 16.1 | 0.00 | 0.00 | 0.00 | 91 | 1012.4 |
| 20260507080506 | 23 | 188 | 6.4 | 16.1 | 0.00 | 0.00 | 0.00 | 91 | 1012.5 |
| 20260507080015 | 23 | 175 | 4.8 | 11.3 | 0.00 | 0.00 | 0.00 | 91 | 1012.4 |
| 20260507075503 | 23 | 173 | 3.2 | 12.9 | 0.00 | 0.00 | 0.00 | 91 | 1012.5 |
| 20260507075006 | 23 | 186 | 4.8 | 14.5 | 0.00 | 0.00 | 0.00 | 91 | 1012.4 |
| 20260507074537 | 23 | 173 | 6.4 | 14.5 | 0.00 | 0.00 | 0.00 | 91 | 1012.5 |
| 20260507074006 | 23 | 198 | 4.8 | 17.7 | 0.00 | 0.00 | 0.00 | 91 | 1012.4 |
| 20260507073507 | 23 | 221 | 6.4 | 17.7 | 0.00 | 0.00 | 0.00 | 91 | 1012.5 |
| 20260507073024 | 23 | 174 | 4.8 | 16.1 | 0.00 | 0.00 | 0.00 | 91 | 1012.6 |
| 20260507072509 | 23 | 204 | 8.0 | 14.5 | 0.00 | 0.00 | 0.00 | 91 | 1012.7 |
| 20260507072011 | 23 | 200 | 1.6 | 12.9 | 0.00 | 0.00 | 0.00 | 91 | 1012.9 |
| 20260507071525 | 23 | 286 | 1.6 | 11.3 | 0.00 | 0.00 | 0.00 | 91 | 1012.9 |
| 20260507071004 | 22 | 319 | 1.6 | 11.3 | 0.00 | 0.00 | 0.00 | 91 | 1013.1 |
| 20260507070504 | 22 | 139 | 3.2 | 9.7 | 0.00 | 0.00 | 0.00 | 91 | 1013.1 |
| 20260507070016 | 22 | 175 | 3.2 | 9.7 | 0.00 | 0.00 | 0.00 | 91 | 1013.1 |
| 20260507065503 | 22 | 190 | 3.2 | 11.3 | 0.00 | 0.00 | 0.00 | 91 | 1013.0 |
| 20260507065004 | 22 | 190 | 4.8 | 17.7 | 0.00 | 0.00 | 0.00 | 91 | 1012.9 |
| 20260507064521 | 22 | 191 | 8.0 | 16.1 | 0.00 | 0.00 | 0.00 | 92 | 1012.8 |
| 20260507064007 | 22 | 209 | 3.2 | 14.5 | 0.00 | 0.00 | 0.00 | 92 | 1012.6 |
| 20260507063508 | 22 | 169 | 8.0 | 19.3 | 0.00 | 0.00 | 0.00 | 92 | 1012.6 |
| 20260507063028 | 22 | 150 | 8.0 | 19.3 | 0.00 | 0.00 | 0.00 | 92 | 1012.7 |
| 20260507062509 | 22 | 207 | 11.3 | 17.7 | 0.00 | 0.00 | 0.00 | 92 | 1012.9 |
| 20260507062011 | 22 | 159 | 9.7 | 17.7 | 0.00 | 0.00 | 0.00 | 92 | 1013.1 |
| 20260507061526 | 22 | 204 | 4.8 | 19.3 | 0.00 | 0.00 | 0.00 | 92 | 1013.1 |
| 20260507061009 | 22 | 171 | 9.7 | 32.2 | 0.00 | 0.00 | 0.00 | 92 | 1013.1 |
| 20260507060509 | 22 | 148 | 12.9 | 32.2 | 0.00 | 0.00 | 0.00 | 92 | 1012.9 |
| 20260507060015 | 22 | 158 | 11.3 | 30.6 | 0.00 | 0.00 | 0.00 | 92 | 1013.0 |
| 20260507055503 | 22 | 155 | 12.9 | 30.6 | 0.00 | 0.00 | 0.00 | 92 | 1012.9 |
| 20260507055004 | 22 | 168 | 14.5 | 30.6 | 0.00 | 0.00 | 0.00 | 92 | 1013.0 |
| 20260507054519 | 22 | 153 | 16.1 | 25.7 | 0.00 | 0.00 | 0.00 | 92 | 1012.9 |
| 20260507054004 | 22 | 175 | 12.9 | 25.7 | 0.00 | 0.00 | 0.00 | 91 | 1013.0 |
| 20260507053505 | 22 | 155 | 12.9 | 20.9 | 0.00 | 0.00 | 0.00 | 91 | 1013.3 |
| 20260507053024 | 22 | 198 | 8.0 | 14.5 | 0.00 | 0.00 | 0.00 | 91 | 1013.5 |
| 20260507052512 | 22 | 180 | 6.4 | 19.3 | 0.00 | 0.00 | 0.00 | 91 | 1013.4 |
| 20260507052008 | 22 | 200 | 8.0 | 20.9 | 0.00 | 0.00 | 0.00 | 91 | 1013.5 |
| 20260507051537 | 22 | 160 | 8.0 | 20.9 | 0.00 | 0.00 | 0.00 | 91 | 1013.4 |
| 20260507051009 | 22 | 172 | 12.9 | 20.9 | 0.00 | 0.00 | 0.00 | 91 | 1013.3 |
| 20260507050506 | 22 | 154 | 11.3 | 19.3 | 0.00 | 0.00 | 0.00 | 91 | 1013.3 |
| 20260507050028 | 22 | 182 | 8.0 | 16.1 | 0.00 | 0.00 | 0.00 | 91 | 1013.5 |
| 20260507045510 | 22 | 157 | 6.4 | 16.1 | 0.00 | 0.00 | 0.00 | 91 | 1013.7 |
| 20260507045004 | 22 | 204 | 6.4 | 16.1 | 0.00 | 0.00 | 0.00 | 91 | 1013.8 |
| 20260507044517 | 22 | 166 | 6.4 | 16.1 | 0.00 | 0.00 | 0.00 | 90 | 1013.7 |
| 20260507044006 | 22 | 199 | 6.4 | 16.1 | 0.00 | 0.00 | 0.00 | 90 | 1013.9 |
| 20260507043506 | 22 | 182 | 8.0 | 16.1 | 0.00 | 0.00 | 0.00 | 90 | 1013.9 |
| 20260507043022 | 22 | 200 | 8.0 | 12.9 | 0.00 | 0.00 | 0.00 | 90 | 1014.0 |
| 20260507042506 | 22 | 208 | 4.8 | 16.1 | 0.00 | 0.00 | 0.00 | 90 | 1014.1 |
| 20260507042007 | 22 | 174 | 9.7 | 22.5 | 0.00 | 0.00 | 0.00 | 90 | 1014.0 |
| 20260507041525 | 22 | 182 | 8.0 | 22.5 | 0.00 | 0.00 | 0.00 | 89 | 1014.1 |
| 20260507041008 | 22 | 196 | 8.0 | 22.5 | 0.00 | 0.00 | 0.00 | 89 | 1014.0 |
| 20260507040509 | 22 | 196 | 11.3 | 22.5 | 0.00 | 0.00 | 0.00 | 89 | 1014.0 |
| 20260507040025 | 22 | 166 | 4.8 | 20.9 | 0.00 | 0.00 | 0.00 | 89 | 1014.0 |
| 20260507035510 | 22 | 175 | 14.5 | 20.9 | 0.00 | 0.00 | 0.00 | 88 | 1013.9 |
| 20260507035010 | 22 | 163 | 11.3 | 19.3 | 0.00 | 0.00 | 0.00 | 88 | 1013.8 |
| 20260507034547 | 22 | 163 | 11.3 | 17.7 | 0.00 | 0.00 | 0.00 | 88 | 1013.8 |
| 20260507034007 | 22 | 168 | 6.4 | 19.3 | 0.00 | 0.00 | 0.00 | 87 | 1014.0 |
| 20260507033504 | 22 | 161 | 9.7 | 24.1 | 0.00 | 0.00 | 0.00 | 87 | 1014.0 |
| 20260507033022 | 22 | 157 | 11.3 | 24.1 | 0.00 | 0.00 | 0.00 | 86 | 1014.1 |
| 20260507032506 | 23 | 180 | 8.0 | 16.1 | 0.00 | 0.00 | 0.00 | 85 | 1014.1 |
| 20260507032006 | 23 | 185 | 8.0 | 17.7 | 0.00 | 0.00 | 0.00 | 84 | 1014.2 |
| 20260507031525 | 23 | 182 | 9.7 | 17.7 | 0.00 | 0.00 | 0.00 | 84 | 1014.2 |
| 20260507031007 | 23 | 174 | 8.0 | 14.5 | 0.00 | 0.00 | 0.00 | 83 | 1014.4 |
| 20260507030506 | 23 | 193 | 8.0 | 17.7 | 0.00 | 0.00 | 0.00 | 82 | 1014.6 |
| 20260507030028 | 23 | 176 | 9.7 | 17.7 | 0.00 | 0.00 | 0.00 | 81 | 1014.5 |
| 20260507025510 | 23 | 169 | 8.0 | 14.5 | 0.00 | 0.00 | 0.00 | 80 | 1014.4 |
| 20260507025009 | 23 | 185 | 8.0 | 17.7 | 0.00 | 0.00 | 0.00 | 79 | 1014.3 |
| 20260507024545 | 23 | 169 | 8.0 | 17.7 | 0.00 | 0.00 | 0.00 | 78 | 1014.2 |
| 20260507024009 | 23 | 204 | 4.8 | 16.1 | 0.00 | 0.00 | 0.00 | 77 | 1014.2 |
| 20260507023508 | 23 | 151 | 6.4 | 16.1 | 0.00 | 0.00 | 0.00 | 76 | 1014.0 |
| 20260507023015 | 23 | 200 | 6.4 | 14.5 | 0.00 | 0.00 | 0.00 | 75 | 1013.9 |
| 20260507022508 | 23 | 186 | 6.4 | 14.5 | 0.00 | 0.00 | 0.00 | 74 | 1014.1 |
| 20260507022004 | 23 | 206 | 8.0 | 14.5 | 0.00 | 0.00 | 0.00 | 73 | 1014.0 |
| 20260507021503 | 23 | 158 | 9.7 | 12.9 | 0.00 | 0.00 | 0.00 | 73 | 1013.7 |
| 20260507021006 | 23 | 199 | 6.4 | 11.3 | 0.00 | 0.00 | 0.00 | 72 | 1013.8 |
| 20260507020503 | 23 | 174 | 4.8 | 14.5 | 0.00 | 0.00 | 0.00 | 71 | 1013.8 |
| 20260507020003 | 23 | 178 | 4.8 | 14.5 | 0.00 | 0.00 | 0.00 | 71 | 1013.7 |
| 20260507015506 | 23 | 171 | 6.4 | 11.3 | 0.00 | 0.00 | 0.00 | 69 | 1013.7 |
| 20260507015004 | 23 | 184 | 8.0 | 9.7 | 0.00 | 0.00 | 0.00 | 69 | 1013.7 |
| 20260507014512 | 23 | 175 | 3.2 | 8.0 | 0.00 | 0.00 | 0.00 | 68 | 1014.0 |
| 20260507014004 | 24 | 198 | 3.2 | 6.4 | 0.00 | 0.00 | 0.00 | 67 | 1013.8 |
| 20260507013509 | 24 | 176 | 1.6 | 9.7 | 0.00 | 0.00 | 0.00 | 67 | 1013.6 |
| 20260507013015 | 24 | 176 | 4.8 | 9.7 | 0.00 | 0.00 | 0.00 | 67 | 1013.6 |
| 20260507012509 | 24 | 170 | 4.8 | 11.3 | 0.00 | 0.00 | 0.00 | 67 | 1013.6 |
| 20260507012007 | 24 | 184 | 3.2 | 11.3 | 0.00 | 0.00 | 0.00 | 67 | 1013.8 |
| 20260507011535 | 24 | 180 | 6.4 | 9.7 | 0.00 | 0.00 | 0.00 | 67 | 1014.1 |
| 20260507011002 | 24 | 180 | 4.8 | 8.0 | 0.00 | 0.00 | 0.00 | 67 | 1014.2 |
| 20260507010503 | 25 | 186 | 3.2 | 6.4 | 0.00 | 0.00 | 0.00 | 67 | 1014.2 |
| 20260507010010 | 25 | 212 | 3.2 | 9.7 | 0.00 | 0.00 | 0.00 | 67 | 1014.1 |
| 20260507005504 | 25 | 193 | 3.2 | 9.7 | 0.00 | 0.00 | 0.00 | 67 | 1014.0 |
| 20260507005003 | 25 | 198 | 3.2 | 12.9 | 0.00 | 0.00 | 0.00 | 67 | 1013.8 |
| 20260507004507 | 25 | 172 | 8.0 | 12.9 | 0.00 | 0.00 | 0.00 | 68 | 1013.7 |
| 20260507004005 | 25 | 202 | 6.4 | 9.7 | 0.00 | 0.00 | 0.00 | 68 | 1013.8 |
| 20260507003505 | 25 | 184 | 4.8 | 9.7 | 0.00 | 0.00 | 0.00 | 69 | 1013.8 |
| 20260507003017 | 25 | 205 | 3.2 | 8.0 | 0.00 | 0.00 | 0.00 | 69 | 1014.1 |
| 20260507002504 | 25 | 202 | 3.2 | 8.0 | 0.00 | 0.00 | 0.00 | 70 | 1014.1 |
| 20260507002007 | 25 | 181 | 3.2 | 12.9 | 0.00 | 0.00 | 0.00 | 69 | 1014.0 |
| 20260507001519 | 26 | 236 | 4.8 | 12.9 | 0.00 | 0.00 | 0.00 | 70 | 1014.1 |
| 20260507001006 | 26 | 193 | 1.6 | 12.9 | 0.00 | 0.00 | 0.00 | 69 | 1014.1 |
| 20260507000508 | 26 | 199 | 3.2 | 14.5 | 0.00 | 0.00 | 0.00 | 69 | 1014.0 |
| 20260507000004 | 26 | 179 | 4.8 | 14.5 | 0.00 | 0.00 | 0.00 | 69 | 1013.9 |
| 20260506235504 | 26 | 254 | 3.2 | 17.7 | 0.00 | 0.00 | 0.00 | 68 | 1013.8 |
| 20260506235003 | 26 | 181 | 6.4 | 17.7 | 0.00 | 0.00 | 0.00 | 68 | 1013.6 |
| 20260506234528 | 26 | 178 | 9.7 | 16.1 | 0.00 | 0.00 | 0.00 | 67 | 1013.3 |
| 20260506234004 | 26 | 205 | 4.8 | 16.1 | 0.00 | 0.00 | 0.00 | 67 | 1013.4 |
| 20260506233505 | 27 | 226 | 9.7 | 16.1 | 0.00 | 0.00 | 0.00 | 66 | 1013.4 |
| 20260506233012 | 27 | 138 | 8.0 | 20.9 | 0.00 | 0.00 | 0.00 | 66 | 1013.4 |
| 20260506232508 | 27 | 190 | 11.3 | 22.5 | 0.00 | 0.00 | 0.00 | 66 | 1013.4 |
| 20260506232007 | 27 | 142 | 9.7 | 24.1 | 0.00 | 0.00 | 0.00 | 66 | 1013.5 |
| 20260506231522 | 27 | 184 | 6.4 | 24.1 | 0.00 | 0.00 | 0.00 | 65 | 1013.4 |
| 20260506231005 | 27 | 268 | 4.8 | 19.3 | 0.00 | 0.00 | 0.00 | 65 | 1013.4 |
| 20260506230506 | 27 | 98 | 3.2 | 20.9 | 0.00 | 0.00 | 0.00 | 66 | 1013.5 |
| 20260506230020 | 28 | 198 | 11.3 | 22.5 | 0.00 | 0.00 | 0.00 | 65 | 1013.5 |
| 20260506225506 | 28 | 194 | 8.0 | 25.7 | 0.00 | 0.00 | 0.00 | 64 | 1013.5 |
| 20260506225003 | 28 | 190 | 11.3 | 25.7 | 0.00 | 0.00 | 0.00 | 64 | 1013.4 |
| 20260506224506 | 28 | 157 | 8.0 | 19.3 | 0.00 | 0.00 | 0.00 | 63 | 1013.3 |
| 20260506224002 | 28 | 238 | 4.8 | 19.3 | 0.00 | 0.00 | 0.00 | 63 | 1013.2 |
| 20260506223503 | 28 | 207 | 8.0 | 19.3 | 0.00 | 0.00 | 0.00 | 62 | 1013.2 |
| 20260506223012 | 28 | 126 | 3.2 | 16.1 | 0.00 | 0.00 | 0.00 | 62 | 1013.3 |
| 20260506222504 | 28 | 225 | 4.8 | 25.7 | 0.00 | 0.00 | 0.00 | 62 | 1013.3 |
| 20260506222004 | 28 | 183 | 11.3 | 27.4 | 0.00 | 0.00 | 0.00 | 61 | 1013.2 |
| 20260506221518 | 28 | 202 | 14.5 | 27.4 | 0.00 | 0.00 | 0.00 | 61 | 1013.1 |
| 20260506221007 | 28 | 246 | 12.9 | 25.7 | 0.00 | 0.00 | 0.00 | 60 | 1013.1 |
| 20260506220507 | 28 | 212 | 6.4 | 17.7 | 0.00 | 0.00 | 0.00 | 61 | 1013.1 |
| 20260506220024 | 28 | 177 | 8.0 | 16.1 | 0.00 | 0.00 | 0.00 | 60 | 1013.4 |
| 20260506215506 | 28 | 196 | 8.0 | 19.3 | 0.00 | 0.00 | 0.00 | 62 | 1013.6 |
| 20260506215008 | 28 | 240 | 11.3 | 19.3 | 0.00 | 0.00 | 0.00 | 61 | 1013.5 |
| 20260506214515 | 28 | 165 | 11.3 | 29.0 | 0.00 | 0.00 | 0.00 | 61 | 1013.7 |
| 20260506214002 | 28 | 206 | 12.9 | 29.0 | 0.00 | 0.00 | 0.00 | 60 | 1013.7 |
| 20260506213503 | 28 | 218 | 4.8 | 19.3 | 0.00 | 0.00 | 0.00 | 60 | 1013.8 |
| 20260506213010 | 28 | 215 | 9.7 | 19.3 | 0.00 | 0.00 | 0.00 | 60 | 1013.8 |
| 20260506212503 | 28 | 175 | 8.0 | 19.3 | 0.00 | 0.00 | 0.00 | 59 | 1013.6 |
| 20260506212003 | 28 | 187 | 11.3 | 19.3 | 0.00 | 0.00 | 0.00 | 58 | 1013.7 |
| 20260506211514 | 28 | 171 | 9.7 | 22.5 | 0.00 | 0.00 | 0.00 | 57 | 1014.0 |
| 20260506211004 | 29 | 140 | 14.5 | 22.5 | 0.00 | 0.00 | 0.00 | 56 | 1013.8 |
| 20260506210507 | 29 | 209 | 9.7 | 17.7 | 0.00 | 0.00 | 0.00 | 56 | 1014.1 |
| 20260506210021 | 29 | 278 | 6.4 | 14.5 | 0.00 | 0.00 | 0.00 | 56 | 1014.1 |
| 20260506205505 | 29 | 170 | 4.8 | 14.5 | 0.00 | 0.00 | 0.00 | 54 | 1014.1 |
| 20260506205005 | 30 | 169 | 8.0 | 16.1 | 0.00 | 0.00 | 0.00 | 54 | 1014.1 |
| 20260506204526 | 30 | 189 | 8.0 | 19.3 | 0.00 | 0.00 | 0.00 | 53 | 1014.1 |
| 20260506204007 | 30 | 210 | 4.8 | 20.9 | 0.00 | 0.00 | 0.00 | 53 | 1014.2 |
| 20260506203503 | 30 | 166 | 4.8 | 20.9 | 0.00 | 0.00 | 0.00 | 55 | 1014.3 |
| 20260506203012 | 30 | 140 | 9.7 | 16.1 | 0.00 | 0.00 | 0.00 | 53 | 1014.3 |
| 20260506202504 | 30 | 152 | 6.4 | 22.5 | 0.00 | 0.00 | 0.00 | 52 | 1014.3 |
| 20260506202004 | 31 | 257 | 3.2 | 22.5 | 0.00 | 0.00 | 0.00 | 52 | 1014.4 |
| 20260506201513 | 31 | 190 | 4.8 | 14.5 | 0.00 | 0.00 | 0.00 | 52 | 1014.4 |
| 20260506201004 | 31 | 204 | 4.8 | 14.5 | 0.00 | 0.00 | 0.00 | 51 | 1014.4 |
| 20260506200503 | 30 | 229 | 3.2 | 11.3 | 0.00 | 0.00 | 0.00 | 52 | 1014.4 |
| 20260506200018 | 30 | 122 | 0.0 | 14.5 | 0.00 | 0.00 | 0.00 | 54 | 1014.5 |
| 20260506195504 | 30 | 192 | 8.0 | 14.5 | 0.00 | 0.00 | 0.00 | 51 | 1014.8 |
| 20260506195004 | 30 | 171 | 8.0 | 14.5 | 0.00 | 0.00 | 0.00 | 52 | 1014.9 |
| 20260506194524 | 30 | 218 | 8.0 | 14.5 | 0.00 | 0.00 | 0.00 | 51 | 1015.0 |
| 20260506194012 | 30 | 192 | 6.4 | 16.1 | 0.00 | 0.00 | 0.00 | 53 | 1015.0 |
| 20260506193509 | 30 | 207 | 6.4 | 16.1 | 0.00 | 0.00 | 0.00 | 50 | 1015.1 |
| 20260506193031 | 30 | 276 | 3.2 | 11.3 | 0.00 | 0.00 | 0.00 | 52 | 1015.3 |
| 20260506192503 | 30 | 228 | 3.2 | 12.9 | 0.00 | 0.00 | 0.00 | 51 | 1015.3 |
| 20260506192003 | 30 | 281 | 4.8 | 16.1 | 0.00 | 0.00 | 0.00 | 51 | 1015.3 |
| 20260506191511 | 30 | 226 | 9.7 | 16.1 | 0.00 | 0.00 | 0.00 | 49 | 1015.4 |
| 20260506191004 | 30 | 196 | 3.2 | 12.9 | 0.00 | 0.00 | 0.00 | 50 | 1015.5 |
| 20260506190508 | 30 | 145 | 3.2 | 11.3 | 0.00 | 0.00 | 0.00 | 50 | 1015.6 |
| 20260506190016 | 30 | 234 | 4.8 | 11.3 | 0.00 | 0.00 | 0.00 | 51 | 1015.7 |
| 20260506185504 | 30 | 160 | 6.4 | 11.3 | 0.00 | 0.00 | 0.00 | 52 | 1015.7 |
| 20260506185011 | 30 | 19 | 3.2 | 6.4 | 0.00 | 0.00 | 0.00 | 51 | 1015.7 |
| 20260506184526 | 30 | 259 | 4.8 | 11.3 | 0.00 | 0.00 | 0.00 | 53 | 1015.8 |
| 20260506184008 | 30 | 188 | 6.4 | 16.1 | 0.00 | 0.00 | 0.00 | 53 | 1015.9 |
| 20260506183508 | 30 | 264 | 1.6 | 16.1 | 0.00 | 0.00 | 0.00 | 55 | 1015.9 |
| 20260506183025 | 30 | 272 | 4.8 | 14.5 | 0.00 | 0.00 | 0.00 | 54 | 1016.0 |
| 20260506182506 | 30 | 166 | 4.8 | 14.5 | 0.00 | 0.00 | 0.00 | 54 | 1016.0 |
| 20260506182007 | 29 | 122 | 4.8 | 11.3 | 0.00 | 0.00 | 0.00 | 53 | 1016.1 |
| 20260506181510 | 29 | 242 | 3.2 | 9.7 | 0.00 | 0.00 | 0.00 | 56 | 1015.9 |
| 20260506181004 | 29 | 125 | 3.2 | 12.9 | 0.00 | 0.00 | 0.00 | 54 | 1016.0 |
| 20260506180503 | 29 | 224 | 6.4 | 12.9 | 0.00 | 0.00 | 0.00 | 54 | 1016.1 |
| 20260506180014 | 29 | 163 | 1.6 | 14.5 | 0.00 | 0.00 | 0.00 | 55 | 1016.2 |
| 20260506175504 | 29 | 165 | 9.7 | 14.5 | 0.00 | 0.00 | 0.00 | 55 | 1016.2 |